Lowry, MN (56349)

6:58 PM CDT on April 23, 2017 (GMT -0500)
KMGK (Magic 107.1) FM | | Change Station

Elev 1168 ft 45.65 °N, 95.39 °W | Updated 0 second ago

Clear
Clear
54.7 °F
Feels Like 54.7 °F
N
4.0
Wind Variable Wind from NNE
Gusts 17.0 mph

Today
High -- | Low -- °F
--% Chance of Precip.
Yesterday
High -- | Low -- °F
Precip. -- in
Pressure 29.87 in
Visibility 10.0 miles
Clouds Clear
Dew Point 44 °F
Humidity 68%
Rainfall 0.68 in
Snow Depth Not available.
6:22 AM 8:19 PM
Waning Crescent, 9% visible
METAR KGHW 232354Z AUTO 06021G25KT 10SM CLR 12/05 A2987 RMK AO2
Pressure 29.87 in
Visibility 10.0 miles
Clouds Clear
Dew Point 44 °F
Humidity 68%
Rainfall 0.68 in
Snow Depth Not available.
6:22 AM 8:19 PM
Waning Crescent, 9% visible
METAR KGHW 232354Z AUTO 06021G25KT 10SM CLR 12/05 A2987 RMK AO2

Get Severe Weather Alerts

Thanks for signing up!

Be on the lookout for a verification email in your inbox.

You'll start receiving the daily forecast at 8 AM.

×

10-Day Weather Forecast

Almanac

Astronomy

Apr. 23, 2017 Rise Set
Actual Time
Civil Twilight
Nautical Twilight
Astronomical Twilight
Moon
Length of Visible Light
Length of Day
Tomorrow will be .
, % of the Moon is Illuminated

Today's Extremes

State Highs State Lows

Community

WunderPhotos

WunderBlog® & News

Nearby

Air Quality

  Air Quality AQ Index Pollutant
Not available.

Snow Depth

Station Depth Elevation

Earthquake Activity

City Distance Mag. Time & Date
Minimum magnitude displayed is 2.5.

Coastal Water Temperatures

Place Temperature

Stations

Nearby Weather Stations

Station Location Temp. Windchill Dew Point Humidity Wind Precip. Elev Updated Type
                   

Watches & Warnings

There are currently no watches in effect.